createdAt,value
2018-04-11T00:02:00.326Z,23.13
2018-04-11T00:06:51.348Z,21.93
2018-04-11T00:11:42.340Z,21.87
2018-04-11T00:16:33.599Z,21.77
2018-04-11T00:21:24.664Z,20.77
2018-04-11T00:26:16.440Z,21.27
2018-04-11T00:31:07.495Z,21.50
2018-04-11T00:35:58.528Z,21.97
2018-04-11T00:40:49.536Z,21.97
2018-04-11T00:45:41.366Z,23.13
2018-04-11T00:50:32.392Z,23.83
2018-04-11T00:55:23.448Z,31.87
2018-04-11T01:00:15.397Z,30.47
2018-04-11T01:05:07.151Z,29.40
2018-04-11T01:09:58.193Z,32.70
2018-04-11T01:14:49.219Z,29.93
2018-04-11T01:19:40.329Z,33.03
2018-04-11T01:24:31.357Z,25.83
2018-04-11T01:29:22.369Z,24.60
2018-04-11T01:34:13.436Z,23.23
2018-04-11T01:39:04.448Z,25.60
2018-04-11T01:43:55.560Z,25.80
2018-04-11T01:48:46.563Z,26.73
2018-04-11T01:53:38.345Z,25.70
2018-04-11T01:58:29.367Z,27.23
2018-04-11T02:03:20.528Z,28.03
2018-04-11T02:08:11.626Z,26.27
2018-04-11T02:13:02.662Z,26.57
2018-04-11T02:17:53.681Z,26.97
2018-04-11T02:22:44.691Z,26.40
2018-04-11T02:27:35.741Z,27.23
2018-04-11T02:32:26.755Z,27.00
2018-04-11T02:37:17.775Z,26.70
2018-04-11T02:42:08.811Z,27.30
2018-04-11T02:46:59.838Z,28.67
2018-04-11T02:51:50.856Z,27.07
2018-04-11T02:56:41.899Z,28.30
2018-04-11T03:01:33.680Z,27.93
2018-04-11T03:06:24.745Z,29.63
2018-04-11T03:11:15.777Z,27.50
2018-04-11T03:16:06.839Z,28.67
2018-04-11T03:20:57.870Z,28.17
2018-04-11T03:25:49.000Z,28.23
2018-04-11T03:30:40.084Z,28.47
2018-04-11T03:35:31.104Z,26.80
2018-04-11T03:40:22.144Z,27.23
2018-04-11T03:45:13.920Z,26.47
2018-04-11T03:50:05.064Z,26.80
2018-04-11T03:54:56.079Z,26.43
2018-04-11T03:59:47.105Z,31.47
2018-04-11T04:04:38.161Z,30.40
2018-04-11T04:09:29.180Z,29.23
2018-04-11T04:14:38.817Z,28.93
2018-04-11T04:19:48.693Z,29.47
2018-04-11T04:24:39.918Z,29.97
2018-04-11T04:29:30.926Z,32.80
2018-04-11T04:34:21.971Z,31.13
2018-04-11T04:39:13.000Z,37.40
2018-04-11T04:44:04.799Z,31.07
2018-04-11T04:48:55.839Z,30.00
2018-04-11T04:53:46.967Z,33.17
2018-04-11T04:58:38.011Z,33.13
2018-04-11T05:03:29.171Z,33.00
2018-04-11T05:08:20.964Z,32.37
2018-04-11T05:13:12.011Z,31.13
2018-04-11T05:18:03.029Z,32.27
2018-04-11T05:22:54.080Z,38.13
2018-04-11T05:27:45.929Z,29.13
2018-04-11T05:32:37.007Z,32.60
2018-04-11T05:37:28.033Z,34.57
2018-04-11T05:42:19.092Z,33.17
2018-04-11T05:47:10.870Z,32.93
2018-04-11T05:52:01.935Z,33.93
2018-04-11T05:56:53.754Z,35.50
2018-04-11T06:01:44.959Z,30.90
2018-04-11T06:06:35.976Z,33.63
2018-04-11T06:11:27.056Z,29.53
2018-04-11T06:16:18.093Z,28.57
2018-04-11T06:21:09.945Z,30.10
2018-04-11T06:26:01.740Z,29.70
2018-04-11T06:30:52.750Z,29.63
2018-04-11T06:35:43.854Z,29.87
2018-04-11T06:40:34.902Z,28.50
2018-04-11T06:45:26.105Z,26.40
2018-04-11T06:50:17.203Z,27.53
2018-04-11T06:55:09.034Z,26.63
2018-04-11T07:00:00.792Z,24.87
2018-04-11T07:04:52.541Z,23.03
2018-04-11T07:09:43.607Z,23.47
2018-04-11T07:14:34.653Z,23.13
2018-04-11T07:19:25.760Z,22.53
2018-04-11T07:24:16.795Z,21.83
2018-04-11T07:29:07.918Z,22.93
2018-04-11T07:33:58.947Z,22.50
2018-04-11T07:38:50.045Z,22.10
2018-04-11T07:43:41.081Z,20.73
2018-04-11T07:48:32.161Z,21.90
2018-04-11T07:53:23.180Z,21.30
2018-04-11T07:58:14.237Z,21.40
2018-04-11T08:03:05.407Z,21.83
2018-04-11T08:07:57.184Z,21.70
2018-04-11T08:12:48.219Z,22.50
2018-04-11T08:17:39.244Z,20.43
2018-04-11T08:22:30.525Z,20.60
2018-04-11T08:27:22.316Z,20.77
2018-04-11T08:32:13.344Z,20.73
2018-04-11T08:37:04.390Z,19.90
2018-04-11T08:41:55.511Z,21.23
2018-04-11T08:46:46.547Z,21.47
2018-04-11T08:51:37.680Z,20.80
2018-04-11T08:56:29.505Z,20.83
2018-04-11T09:01:21.584Z,21.57
2018-04-11T09:06:13.524Z,19.87
2018-04-11T09:11:05.460Z,19.50
2018-04-11T09:20:55.432Z,20.03
2018-04-11T09:25:46.459Z,19.63
2018-04-11T09:30:37.483Z,19.43
2018-04-11T09:35:28.560Z,19.50
2018-04-11T09:40:19.637Z,20.47
2018-04-11T09:45:10.692Z,23.17
2018-04-11T09:50:01.713Z,21.83
2018-04-11T09:54:52.755Z,20.07
2018-04-11T09:59:44.843Z,20.47
2018-04-11T10:04:35.939Z,21.40
2018-04-11T10:09:27.713Z,21.23
2018-04-11T10:14:18.761Z,21.13
2018-04-11T10:19:10.816Z,21.37
2018-04-11T10:29:29.239Z,21.60
2018-04-11T10:34:20.333Z,21.60
2018-04-11T10:39:11.435Z,24.40
2018-04-11T10:44:02.509Z,24.90
2018-04-11T10:48:53.590Z,21.43
2018-04-11T10:53:44.652Z,23.77
2018-04-11T10:58:35.796Z,25.23
2018-04-11T11:03:26.855Z,23.97
2018-04-11T11:08:17.920Z,24.00
2018-04-11T11:13:08.947Z,28.33
2018-04-11T11:17:59.996Z,23.50
2018-04-11T11:22:51.891Z,23.87
2018-04-11T11:27:43.627Z,23.07
2018-04-11T11:32:34.853Z,27.33
2018-04-11T11:37:26.109Z,23.33
2018-04-11T11:42:17.227Z,25.13
2018-04-11T11:47:08.265Z,27.97
2018-04-11T11:51:59.463Z,25.57
2018-04-11T11:56:50.560Z,27.23
2018-04-11T12:01:41.679Z,25.90
2018-04-11T12:06:32.691Z,27.60
2018-04-11T12:11:24.446Z,25.70
2018-04-11T12:16:15.531Z,26.77
2018-04-11T12:21:06.565Z,26.57
2018-04-11T12:25:58.324Z,24.40
2018-04-11T12:30:50.164Z,23.37
2018-04-11T12:35:41.955Z,25.23
2018-04-11T12:40:33.031Z,29.00
2018-04-11T12:45:24.880Z,27.17
2018-04-11T12:50:16.657Z,27.17
2018-04-11T12:55:07.730Z,27.13
2018-04-11T12:59:59.629Z,25.90
2018-04-11T13:04:51.527Z,26.33
2018-04-11T13:09:43.477Z,28.07
2018-04-11T13:14:35.369Z,28.27
2018-04-11T13:19:26.462Z,31.53
2018-04-11T13:24:17.517Z,29.73
2018-04-11T13:29:08.608Z,27.33
2018-04-11T13:33:59.648Z,28.60
2018-04-11T13:38:50.655Z,30.17
2018-04-11T13:43:41.693Z,32.60
2018-04-11T13:48:32.772Z,33.70
2018-04-11T13:53:24.569Z,32.10
2018-04-11T13:58:15.602Z,29.90
2018-04-11T14:03:06.599Z,31.07
2018-04-11T14:07:57.735Z,28.70
2018-04-11T14:12:48.750Z,29.17
2018-04-11T14:17:39.817Z,30.30
2018-04-11T14:22:30.849Z,29.60
2018-04-11T14:27:22.622Z,30.47
2018-04-11T14:32:13.676Z,32.07
2018-04-11T14:37:04.789Z,34.00
2018-04-11T14:41:55.816Z,31.43
2018-04-11T14:46:46.883Z,30.60
2018-04-11T14:51:38.721Z,32.10
2018-04-11T14:56:30.475Z,30.83
2018-04-11T15:01:22.322Z,35.67
2018-04-11T15:06:14.112Z,30.33
2018-04-11T15:11:05.208Z,30.87
2018-04-11T15:15:56.302Z,32.07
2018-04-11T15:20:48.085Z,31.53
2018-04-11T15:25:39.154Z,32.73
2018-04-11T15:30:30.932Z,31.73
2018-04-11T15:35:22.729Z,31.47
2018-04-11T15:40:13.788Z,35.17
2018-04-11T15:45:04.819Z,35.53
2018-04-11T15:49:55.892Z,32.70
2018-04-11T15:54:46.942Z,31.73
2018-04-11T15:59:38.032Z,31.43
2018-04-11T16:04:29.100Z,30.37
2018-04-11T16:09:20.922Z,32.37
2018-04-11T16:14:12.013Z,31.97
2018-04-11T16:19:03.090Z,30.33
2018-04-11T16:23:54.967Z,30.27
2018-04-11T16:28:46.047Z,31.13
2018-04-11T16:33:37.830Z,31.77
2018-04-11T16:38:28.906Z,33.50
2018-04-11T16:43:19.983Z,33.47
2018-04-11T16:48:11.030Z,29.13
2018-04-11T16:53:02.080Z,27.80
2018-04-11T16:57:53.124Z,27.77
2018-04-11T17:02:44.912Z,29.20
2018-04-11T17:07:36.780Z,28.00
2018-04-11T17:12:27.855Z,27.83
2018-04-11T17:17:19.619Z,33.13
2018-04-11T17:22:29.416Z,33.40
2018-04-11T17:27:39.158Z,29.37
2018-04-11T17:32:30.250Z,28.73
2018-04-11T17:37:21.383Z,27.30
2018-04-11T17:42:12.440Z,30.03
2018-04-11T17:47:03.469Z,30.33
2018-04-11T17:51:54.500Z,29.47
2018-04-11T17:56:45.509Z,28.73
2018-04-11T18:01:36.554Z,30.40
2018-04-11T18:06:27.727Z,28.80
2018-04-11T18:11:19.500Z,28.17
2018-04-11T18:16:10.627Z,29.43
2018-04-11T18:21:01.663Z,30.60
2018-04-11T18:25:52.693Z,32.57
2018-04-11T18:30:43.852Z,31.73
2018-04-11T18:35:35.603Z,31.13
2018-04-11T18:40:27.432Z,31.20
2018-04-11T18:45:19.215Z,30.67
2018-04-11T18:50:10.345Z,30.30
2018-04-11T18:55:01.384Z,31.23
2018-04-11T18:59:52.487Z,29.50
2018-04-11T19:04:43.668Z,30.67
2018-04-11T19:09:35.456Z,30.67
2018-04-11T19:14:26.475Z,30.00
2018-04-11T19:19:17.538Z,30.23
2018-04-11T19:24:08.526Z,30.60
2018-04-11T19:28:59.540Z,31.40
2018-04-11T19:33:50.608Z,31.03
2018-04-11T19:38:41.616Z,31.27
2018-04-11T19:43:32.650Z,30.23
2018-04-11T19:48:23.737Z,31.63
2018-04-11T19:53:14.786Z,30.87
2018-04-11T19:58:05.913Z,30.97
2018-04-11T20:02:56.981Z,31.20
2018-04-11T20:07:48.845Z,31.03
2018-04-11T20:12:39.902Z,34.17
2018-04-11T20:17:30.985Z,31.70
2018-04-11T20:22:22.816Z,32.10
2018-04-11T20:27:14.580Z,32.97
2018-04-11T20:32:06.380Z,35.23
2018-04-11T20:36:57.566Z,35.30
2018-04-11T20:41:48.646Z,33.20
2018-04-11T20:46:39.690Z,35.57
2018-04-11T20:51:30.691Z,31.27
2018-04-11T20:56:21.732Z,27.87
2018-04-11T21:01:12.728Z,27.07
2018-04-11T21:06:04.917Z,26.83
2018-04-11T21:10:55.927Z,26.83
2018-04-11T21:15:47.035Z,26.77
2018-04-11T21:20:38.064Z,25.53
2018-04-11T21:25:29.086Z,24.50
2018-04-11T21:30:20.216Z,24.33
2018-04-11T21:35:11.325Z,24.57
2018-04-11T21:40:02.460Z,25.40
2018-04-11T21:44:53.489Z,25.33
2018-04-11T21:49:59.032Z,25.20
2018-04-11T21:54:50.104Z,25.83
2018-04-11T21:59:41.180Z,24.00
2018-04-11T22:04:32.219Z,28.57
2018-04-11T22:09:23.275Z,31.63
2018-04-11T22:14:14.332Z,27.70
2018-04-11T22:19:05.388Z,26.37
2018-04-11T22:23:57.236Z,25.67
2018-04-11T22:28:48.306Z,25.13
2018-04-11T22:33:39.351Z,26.50
2018-04-11T22:38:30.400Z,24.67
2018-04-11T22:43:21.469Z,25.80
2018-04-11T22:48:12.538Z,24.77
2018-04-11T22:53:03.601Z,25.17
2018-04-11T22:57:54.621Z,24.10
2018-04-11T23:02:46.434Z,23.93
2018-04-11T23:07:37.610Z,24.03
2018-04-11T23:12:28.636Z,26.20
2018-04-11T23:17:19.735Z,29.87
2018-04-11T23:22:15.432Z,27.30
2018-04-11T23:27:06.524Z,27.20
2018-04-11T23:31:57.582Z,27.87
2018-04-11T23:36:48.632Z,26.40
2018-04-11T23:41:40.497Z,28.80
2018-04-11T23:46:31.514Z,27.73
2018-04-11T23:51:22.757Z,28.00
2018-04-11T23:56:13.771Z,27.43
